Time;durP1;ratioP1;P1;durP2;ratioP2;P2;SDS_P1;SDS_P2;PMS_P1;PMS_P2;Temp;Humidity;BMP_temperature;BMP_pressure;BME280_temperature;BME280_humidity;BME280_pressure;Samples;Min_cycle;Max_cycle;Signal;HPM_P1;HPM_P2
2021/07/06 00:01:06;;;;;;;18.23;3.22;;;15.00;99.90;;;14.38;98.34;99981.66;4087826;29;20038;-75
2021/07/06 00:03:07;;;;;;;13.55;3.30;;;14.90;99.90;;;14.38;97.96;99978.19;4087590;29;20134;-75
2021/07/06 00:05:09;;;;;;;23.13;4.22;;;15.00;99.90;;;14.48;97.11;99983.13;4104890;29;20031;-75
2021/07/06 00:07:11;;;;;;;19.70;4.35;;;14.90;99.90;;;14.44;97.46;99985.34;4104705;29;20023;-75
2021/07/06 00:09:12;;;;;;;16.70;3.40;;;14.90;99.90;;;14.39;98.27;99971.88;4071771;29;20040;-75
2021/07/06 00:11:13;;;;;;;15.85;3.85;;;14.90;99.90;;;14.39;98.80;99967.34;4087301;29;20100;-75
2021/07/06 00:13:14;;;;;;;17.58;3.63;;;15.00;99.90;;;14.40;98.55;99976.13;4103485;29;20036;-75
2021/07/06 00:15:19;;;;;;;20.02;3.80;;;14.90;99.90;;;14.36;98.23;99978.41;4087517;29;20035;-75
2021/07/06 00:17:20;;;;;;;27.30;4.45;;;14.90;99.90;;;14.34;97.88;99966.31;4087377;29;20042;-75
2021/07/06 00:19:21;;;;;;;20.05;4.20;;;14.90;99.90;;;14.30;98.40;99967.72;4103208;29;20047;-75
2021/07/06 00:21:22;;;;;;;22.90;3.67;;;14.90;99.90;;;14.33;97.28;99962.88;4087781;29;20048;-75
2021/07/06 00:23:23;;;;;;;20.05;3.85;;;14.90;99.90;;;14.38;95.51;99957.78;4087467;29;20042;-75
2021/07/06 00:25:26;;;;;;;19.10;4.57;;;14.90;99.90;;;14.26;93.91;99959.34;4086961;29;20027;-75
2021/07/06 00:27:27;;;;;;;18.08;3.95;;;14.80;99.90;;;14.22;93.92;99947.47;4104278;29;20037;-75
2021/07/06 00:29:28;;;;;;;14.23;3.67;;;14.80;99.90;;;14.25;93.44;99951.56;4103291;29;20035;-75
2021/07/06 00:31:29;;;;;;;14.77;3.42;;;14.80;99.90;;;14.29;93.69;99950.97;4104474;29;20054;-75
2021/07/06 00:33:31;;;;;;;20.38;3.47;;;14.80;99.90;;;14.24;94.13;99950.78;4104428;29;20035;-75
2021/07/06 00:35:32;;;;;;;14.02;4.57;;;14.80;99.90;;;14.23;95.42;99957.09;4102978;29;20035;-75
2021/07/06 00:37:33;;;;;;;17.38;3.05;;;14.80;99.90;;;14.28;95.10;99946.69;4103202;29;20031;-75
2021/07/06 00:39:33;;;;;;;11.27;3.15;;;14.80;99.90;;;14.32;95.31;99955.94;4087254;29;20024;-75
2021/07/06 00:41:37;;;;;;;24.33;4.47;;;14.80;99.90;;;14.39;95.50;99948.78;4104048;29;20038;-75
2021/07/06 00:43:37;;;;;;;18.55;3.97;;;14.90;99.90;;;14.45;94.35;99931.28;4103055;29;20023;-75
2021/07/06 00:45:38;;;;;;;14.68;4.00;;;14.90;99.90;;;14.48;94.56;99944.13;4104342;29;20042;-75
2021/07/06 00:47:43;;;;;;;16.45;3.72;;;15.00;99.90;;;14.48;93.86;99940.66;4103921;28;20051;-75
2021/07/06 00:49:44;;;;;;;17.52;3.55;;;15.10;99.90;;;14.56;94.98;99956.41;4103073;29;20031;-75
2021/07/06 00:51:45;;;;;;;16.13;4.00;;;15.10;99.90;;;14.54;93.25;99939.84;4103892;29;20046;-75
2021/07/06 00:53:46;;;;;;;17.33;4.10;;;15.10;99.90;;;14.56;92.75;99964.34;4104193;29;20494;-75
2021/07/06 00:55:49;;;;;;;15.52;3.78;;;15.20;99.90;;;14.54;93.67;99958.44;4087131;29;20032;-75
2021/07/06 00:57:50;;;;;;;21.73;4.27;;;15.20;99.90;;;14.57;92.73;99968.66;4087211;29;20032;-75
2021/07/06 00:59:51;;;;;;;19.10;4.70;;;15.20;99.90;;;14.56;93.17;99956.41;4071163;29;20276;-75
2021/07/06 01:01:52;;;;;;;26.02;4.15;;;15.10;99.90;;;14.56;93.79;99967.00;4104257;29;20027;-76
2021/07/06 01:03:53;;;;;;;15.65;3.30;;;15.10;99.90;;;14.56;94.58;99969.66;4087013;29;20103;-75
2021/07/06 01:05:54;;;;;;;19.55;4.88;;;15.10;99.90;;;14.68;93.72;99960.91;4086742;29;20032;-75
2021/07/06 01:07:55;;;;;;;20.23;3.97;;;15.10;99.90;;;14.65;94.18;99968.47;4103763;29;20027;-75
2021/07/06 01:09:56;;;;;;;13.77;3.95;;;15.20;99.90;;;14.55;95.58;99975.97;4102418;29;20041;-75
2021/07/06 01:11:57;;;;;;;17.25;4.30;;;15.30;99.90;;;14.43;95.51;99962.47;4086901;29;20024;-75
2021/07/06 01:13:58;;;;;;;20.92;5.50;;;15.20;99.90;;;14.50;96.23;99957.19;4086848;29;20035;-75
2021/07/06 01:15:59;;;;;;;18.80;4.28;;;15.10;99.90;;;14.48;97.47;99949.44;4104020;29;20063;-75
2021/07/06 01:18:11;;;;;;;21.65;4.78;;;15.10;99.90;;;14.33;98.11;99946.97;4086636;29;20492;-75
2021/07/06 01:20:21;;;;;;;20.67;4.60;;;15.00;99.90;;;14.24;97.33;99966.69;4086861;29;20040;-75
2021/07/06 01:22:32;;;;;;;22.17;6.63;;;14.90;99.90;;;14.28;96.22;99967.91;4104013;29;20035;-75
2021/07/06 01:24:37;;;;;;;19.25;4.82;;;14.80;99.90;;;14.11;97.27;99945.41;4079368;29;20059;-75
2021/07/06 01:26:38;;;;;;;14.15;3.47;;;14.80;99.90;;;14.22;96.67;99939.53;4086819;29;20035;-75
2021/07/06 01:28:41;;;;;;;21.08;5.97;;;14.80;99.90;;;14.05;98.76;99963.94;4103830;29;20035;-75
2021/07/06 01:30:42;;;;;;;19.90;3.38;;;14.80;99.90;;;13.99;99.19;99956.78;4103544;29;20038;-75
2021/07/06 01:32:48;;;;;;;17.27;4.35;;;14.70;99.90;;;14.04;98.35;99965.75;4086788;29;20051;-75
2021/07/06 01:34:49;;;;;;;25.10;4.97;;;14.70;99.90;;;14.05;99.27;99978.03;4086760;29;20388;-74
2021/07/06 01:36:50;;;;;;;17.23;5.20;;;14.60;99.90;;;14.12;98.44;99975.41;4103601;29;20126;-75
2021/07/06 01:38:51;;;;;;;21.15;5.22;;;14.70;99.90;;;13.99;98.96;99962.91;4086451;29;20024;-75
2021/07/06 01:40:52;;;;;;;24.60;5.43;;;14.60;99.90;;;14.16;97.10;99985.41;4103466;29;20487;-75
2021/07/06 01:42:54;;;;;;;17.88;5.40;;;14.60;99.90;;;14.05;96.63;99979.84;4086782;29;20023;-75
2021/07/06 01:45:13;;;;;;;22.63;6.22;;;14.70;99.90;;;14.08;95.69;99980.28;4086515;29;20028;-75
2021/07/06 01:47:14;;;;;;;15.93;4.15;;;14.70;99.90;;;14.03;93.86;99976.59;4103536;29;20509;-75
2021/07/06 01:49:16;;;;;;;23.75;4.57;;;14.70;99.90;;;14.13;93.99;99984.97;4103641;29;20109;-75
2021/07/06 01:51:17;;;;;;;17.02;4.93;;;14.80;99.90;;;14.17;92.42;99989.72;4086514;29;20110;-74
2021/07/06 01:53:22;;;;;;;22.80;4.90;;;14.80;99.90;;;14.20;90.83;99991.97;4103524;29;20399;-75
2021/07/06 01:55:27;;;;;;;20.80;4.88;;;14.80;99.90;;;14.24;90.97;99974.66;4103158;29;20035;-75
2021/07/06 01:57:28;;;;;;;12.73;3.95;;;14.90;99.90;;;14.29;89.24;99979.34;4086740;29;20038;-75
2021/07/06 01:59:29;;;;;;;18.63;4.50;;;14.90;99.90;;;14.29;90.79;100008.53;4103567;28;20051;-75
2021/07/06 02:01:30;;;;;;;18.55;4.05;;;14.90;99.90;;;14.29;89.45;99990.78;4073720;29;20035;-74
2021/07/06 02:03:32;;;;;;;17.33;4.60;;;14.90;99.90;;;14.27;89.81;99997.31;4105472;29;20082;-75
2021/07/06 02:05:37;;;;;;;14.00;3.75;;;14.90;99.90;;;14.31;88.75;99990.56;4105185;29;20026;-75
2021/07/06 02:07:38;;;;;;;16.00;4.72;;;14.90;99.90;;;14.31;88.99;99980.78;4106607;29;20037;-75
2021/07/06 02:09:40;;;;;;;22.80;4.32;;;14.90;99.90;;;14.31;87.39;99987.91;4106277;29;20426;-74
2021/07/06 02:11:43;;;;;;;14.55;4.32;;;15.00;99.90;;;14.32;88.59;99992.22;4089795;29;20024;-74
2021/07/06 02:13:44;;;;;;;15.55;4.25;;;15.00;99.90;;;14.38;87.41;99973.69;4089416;29;20028;-75
2021/07/06 02:15:47;;;;;;;21.13;4.47;;;15.10;99.90;;;14.36;87.43;99985.53;4089395;29;20032;-75
2021/07/06 02:17:49;;;;;;;18.75;4.05;;;15.10;99.90;;;14.44;87.92;99981.88;4089252;29;20042;-74
2021/07/06 02:19:49;;;;;;;14.82;4.05;;;15.10;99.90;;;14.54;87.68;99993.75;4089172;29;20044;-75
2021/07/06 02:21:50;;;;;;;14.07;3.83;;;15.20;99.90;;;14.41;86.75;99999.00;4089272;29;20028;-75
2021/07/06 02:23:51;;;;;;;16.15;3.53;;;15.20;99.90;;;14.42;87.44;100002.50;4106231;29;20028;-74
2021/07/06 02:25:53;;;;;;;17.27;3.95;;;15.20;99.90;;;14.46;85.86;99982.47;4105926;29;20027;-75
2021/07/06 02:27:54;;;;;;;45.67;5.25;;;15.20;99.90;;;14.45;86.26;99997.63;4106347;29;20023;-75
2021/07/06 02:29:55;;;;;;;21.52;5.55;;;15.20;99.90;;;14.50;86.31;99989.03;4105181;29;20042;-75
2021/07/06 02:31:56;;;;;;;16.40;5.13;;;15.20;99.90;;;14.55;86.34;99994.56;4105094;29;20035;-75
2021/07/06 02:33:57;;;;;;;16.60;4.57;;;15.20;99.90;;;14.59;84.84;100009.91;4104880;29;20058;-75
2021/07/06 02:36:03;;;;;;;21.90;4.53;;;15.20;99.90;;;14.54;86.42;99990.28;4105024;29;20027;-75
2021/07/06 02:38:05;;;;;;;18.65;4.18;;;15.30;99.90;;;14.67;85.36;100000.91;4104846;29;20522;-75
2021/07/06 02:40:09;;;;;;;17.83;3.92;;;15.30;99.90;;;14.55;85.49;99998.03;4104751;29;20042;-75
2021/07/06 02:42:10;;;;;;;16.90;5.28;;;15.30;99.90;;;14.59;84.86;100019.69;4104670;29;20023;-75
2021/07/06 02:44:11;;;;;;;16.90;4.03;;;15.30;99.90;;;14.64;84.17;100023.38;4089190;29;20094;-75
2021/07/06 02:46:12;;;;;;;14.68;4.03;;;15.30;99.90;;;14.57;85.05;100016.44;4104940;29;20118;-74
2021/07/06 02:48:13;;;;;;;15.70;3.35;;;15.30;99.90;;;14.51;86.04;100020.69;4088801;29;20031;-75
2021/07/06 02:50:16;;;;;;;16.38;4.72;;;15.30;99.90;;;14.56;85.90;100010.31;4105692;29;20035;-75
2021/07/06 02:52:17;;;;;;;17.33;3.80;;;15.30;99.90;;;14.62;84.99;100028.09;4088809;29;20063;-75
2021/07/06 02:54:18;;;;;;;13.27;3.63;;;15.30;99.90;;;14.61;84.20;100029.09;4088957;29;20043;-75
2021/07/06 02:56:19;;;;;;;16.60;4.72;;;15.30;99.90;;;14.69;83.75;100033.41;4105701;29;20451;-75
2021/07/06 02:58:20;;;;;;;19.33;3.97;;;15.30;99.90;;;14.74;84.53;100036.28;4105670;29;20031;-75
2021/07/06 03:00:25;;;;;;;17.30;4.35;;;15.30;99.90;;;14.65;85.22;100042.78;4072977;29;20020;-75
2021/07/06 03:02:26;;;;;;;17.25;4.85;;;15.30;99.90;;;14.56;86.26;100052.75;4105855;29;20038;-75
2021/07/06 03:04:27;;;;;;;24.25;4.82;;;15.30;99.90;;;14.63;85.59;100037.69;4088631;29;20028;-75
2021/07/06 03:06:29;;;;;;;20.90;5.25;;;15.40;99.90;;;14.74;85.30;100054.88;4105523;29;20074;-75
2021/07/06 03:08:30;;;;;;;19.70;4.60;;;15.30;99.90;;;14.67;85.36;100046.06;4104368;29;20121;-75
2021/07/06 03:10:36;;;;;;;19.92;5.68;;;15.40;99.90;;;14.71;86.54;100057.91;4088012;29;20176;-75
2021/07/06 03:12:39;;;;;;;18.98;4.65;;;15.40;99.90;;;14.69;86.58;100057.31;4088494;29;20502;-75
2021/07/06 03:14:40;;;;;;;21.95;5.13;;;15.40;99.90;;;14.66;86.95;100063.00;4072624;29;20044;-75
2021/07/06 03:16:40;;;;;;;21.38;5.18;;;15.40;99.90;;;14.59;86.14;100064.81;4105555;29;20020;-75
2021/07/06 03:18:41;;;;;;;15.85;3.67;;;15.30;99.90;;;14.56;86.71;100066.03;4105404;29;20048;-75
2021/07/06 03:20:42;;;;;;;23.55;4.35;;;15.40;99.90;;;14.64;86.59;100057.88;4088420;29;20035;-75
2021/07/06 03:22:45;;;;;;;22.27;4.70;;;15.30;99.90;;;14.63;86.40;100074.03;4088392;29;20066;-75
2021/07/06 03:24:46;;;;;;;27.20;4.65;;;15.40;99.90;;;14.70;84.81;100066.88;4103994;29;20047;-74
2021/07/06 03:26:47;;;;;;;19.67;4.57;;;15.40;99.90;;;14.65;85.41;100067.50;4088344;29;20039;-75
2021/07/06 03:28:48;;;;;;;24.92;5.60;;;15.40;99.90;;;14.65;85.79;100064.03;4088340;29;20032;-75
2021/07/06 03:30:49;;;;;;;14.27;4.45;;;15.40;99.90;;;14.72;84.96;100078.16;4104053;29;20031;-75
2021/07/06 03:32:53;;;;;;;15.35;4.88;;;15.40;99.90;;;14.56;85.88;100078.47;4105353;29;20085;-75
2021/07/06 03:34:54;;;;;;;10.75;3.53;;;15.30;99.90;;;14.53;86.23;100065.59;4105312;29;20031;-75
2021/07/06 03:36:55;;;;;;;16.05;3.70;;;15.30;99.90;;;14.52;86.07;100061.31;4105283;29;20114;-75
2021/07/06 03:38:56;;;;;;;14.93;3.78;;;15.30;99.90;;;14.51;85.76;100081.75;4088066;29;20032;-75
2021/07/06 03:40:57;;;;;;;15.45;2.67;;;15.30;99.90;;;14.54;85.73;100081.34;4103876;29;20531;-75
2021/07/06 03:42:58;;;;;;;12.73;3.65;;;15.20;99.90;;;14.46;85.66;100060.25;4088212;29;20462;-74
2021/07/06 03:44:59;;;;;;;16.40;4.40;;;15.30;99.90;;;14.45;86.38;100066.59;4105096;29;20094;-75
2021/07/06 03:47:00;;;;;;;17.98;3.90;;;15.20;99.90;;;14.48;85.61;100087.44;4088016;29;20036;-75
2021/07/06 03:49:03;;;;;;;15.20;3.63;;;15.20;99.90;;;14.45;85.02;100081.72;4104076;29;20034;-75
2021/07/06 03:51:04;;;;;;;12.50;3.63;;;15.20;99.90;;;14.37;86.06;100078.19;4087969;29;20102;-75
2021/07/06 03:53:06;;;;;;;19.85;3.67;;;15.10;99.90;;;14.30;86.31;100074.66;4104940;29;20501;-75
2021/07/06 03:55:08;;;;;;;18.50;4.65;;;15.10;99.90;;;14.46;85.65;100078.00;4087767;29;20446;-75
2021/07/06 03:57:09;;;;;;;15.77;3.72;;;15.10;99.90;;;14.46;85.96;100081.50;4072104;29;20028;-75
2021/07/06 03:59:10;;;;;;;18.02;4.55;;;15.20;99.90;;;14.31;87.22;100091.38;4087757;29;20027;-75
2021/07/06 04:01:11;;;;;;;15.07;5.25;;;15.10;99.90;;;14.32;86.62;100077.97;4104627;29;20484;-75
2021/07/06 04:03:11;;;;;;;16.38;4.05;;;15.10;99.90;;;14.39;86.27;100078.00;4087665;29;20106;-75
2021/07/06 04:05:14;;;;;;;18.95;3.50;;;15.10;99.90;;;14.33;86.91;100087.56;4103682;29;20055;-75
2021/07/06 04:07:15;;;;;;;20.10;4.97;;;15.10;99.90;;;14.34;87.66;100081.22;4087840;29;20546;-75
2021/07/06 04:09:16;;;;;;;18.75;4.13;;;15.10;99.90;;;14.34;87.62;100097.16;4104686;29;20114;-75
2021/07/06 04:11:17;;;;;;;21.63;4.10;;;15.10;99.90;;;14.47;87.52;100083.13;4087320;29;20031;-75
2021/07/06 04:13:18;;;;;;;15.63;3.55;;;15.10;99.90;;;14.44;87.73;100102.09;4104725;29;20491;-75
2021/07/06 04:15:20;;;;;;;15.65;3.97;;;15.10;99.90;;;14.49;88.22;100109.47;4087535;29;20035;-75
2021/07/06 04:17:21;;;;;;;19.85;4.60;;;15.10;99.90;;;14.48;88.60;100107.84;4087486;29;20031;-75
2021/07/06 04:19:22;;;;;;;21.02;5.15;;;15.20;99.90;;;14.48;89.99;100113.16;4087428;29;20105;-75
2021/07/06 04:21:23;;;;;;;14.65;3.60;;;15.20;99.90;;;14.35;91.40;100097.97;4104656;29;20038;-75
2021/07/06 04:23:24;;;;;;;25.60;5.75;;;15.10;99.90;;;14.17;92.57;100106.41;4086815;29;20095;-75
2021/07/06 04:25:25;;;;;;;21.15;4.15;;;15.00;99.90;;;14.24;92.91;100117.91;4104133;29;20020;-75
2021/07/06 04:27:26;;;;;;;15.57;5.35;;;15.00;99.90;;;14.24;92.95;100112.59;4103281;29;20086;-75
2021/07/06 04:29:27;;;;;;;25.05;4.38;;;15.00;99.90;;;14.30;92.34;100118.94;4087462;29;20024;-75
2021/07/06 04:31:28;;;;;;;17.27;4.13;;;15.00;99.90;;;14.32;91.42;100117.75;4103262;29;20159;-75
2021/07/06 04:33:29;;;;;;;20.40;4.10;;;15.00;99.90;;;14.25;92.45;100118.69;4103016;29;20035;-75
2021/07/06 04:35:30;;;;;;;20.95;4.80;;;15.00;99.90;;;14.23;91.77;100126.03;4104093;29;20036;-75
2021/07/06 04:37:31;;;;;;;18.08;3.58;;;15.00;99.90;;;14.24;92.32;100141.78;4104227;29;20031;-75
2021/07/06 04:39:32;;;;;;;14.80;3.05;;;15.00;99.90;;;14.26;90.02;100139.75;4102736;29;20054;-75
2021/07/06 04:41:33;;;;;;;20.20;5.05;;;14.90;99.90;;;14.20;90.73;100134.38;4102959;29;20028;-75
2021/07/06 04:43:33;;;;;;;19.60;4.68;;;14.90;99.90;;;14.30;89.93;100125.09;4104270;29;20407;-75
2021/07/06 04:45:36;;;;;;;15.10;3.28;;;15.00;99.90;;;14.25;88.96;100140.75;4104206;29;20063;-75
2021/07/06 04:47:37;;;;;;;16.25;4.00;;;15.00;99.90;;;14.16;90.55;100143.72;4103004;29;20038;-75
2021/07/06 04:49:38;;;;;;;16.48;3.95;;;15.00;99.90;;;14.13;91.90;100152.06;4102971;29;20427;-75
2021/07/06 04:51:39;;;;;;;17.90;3.60;;;14.90;99.90;;;14.07;90.86;100147.53;4102744;29;20561;-75
2021/07/06 04:53:42;;;;;;;16.42;3.05;;;15.00;99.90;;;14.15;91.26;100164.16;4104200;29;20068;-75
2021/07/06 04:55:42;;;;;;;13.20;4.28;;;15.00;99.90;;;14.07;90.31;100158.16;4086838;29;20028;-75
2021/07/06 04:57:44;;;;;;;14.70;3.33;;;15.00;99.90;;;14.13;90.64;100158.19;4086958;29;20104;-75
2021/07/06 04:59:45;;;;;;;17.38;3.95;;;14.90;99.90;;;14.07;91.05;100143.06;4087023;29;20569;-75
2021/07/06 05:01:46;;;;;;;17.10;3.55;;;14.90;99.90;;;14.03;91.71;100135.69;4103949;29;20023;-75
2021/07/06 05:03:49;;;;;;;19.60;4.25;;;14.90;99.90;;;14.11;91.03;100165.53;4086925;29;20110;-75
2021/07/06 05:05:51;;;;;;;19.77;4.00;;;14.90;99.90;;;14.18;90.98;100166.41;4071164;29;20403;-75
2021/07/06 05:07:55;;;;;;;18.63;4.15;;;14.90;99.90;;;14.19;90.58;100167.22;4086851;29;20593;-75
2021/07/06 05:09:55;;;;;;;16.17;3.42;;;14.90;99.90;;;14.28;90.44;100172.19;4086623;29;20589;-75
2021/07/06 05:11:56;;;;;;;19.67;5.35;;;15.00;99.90;;;14.30;89.96;100172.84;4102753;29;20043;-75
2021/07/06 05:13:57;;;;;;;17.50;4.20;;;15.00;99.90;;;14.35;90.12;100177.56;4103830;29;20487;-75
2021/07/06 05:15:58;;;;;;;15.30;3.88;;;15.00;99.90;;;14.32;89.48;100183.25;4086695;29;20075;-76
2021/07/06 05:17:59;;;;;;;16.80;4.78;;;15.10;99.90;;;14.42;88.93;100204.16;4086529;29;20038;-75
2021/07/06 05:20:01;;;;;;;18.67;3.80;;;15.10;99.90;;;14.47;88.63;100196.44;4086551;29;20028;-75
2021/07/06 05:22:03;;;;;;;10.45;3.30;;;15.20;99.90;;;14.55;87.96;100198.94;4102559;29;20024;-75
2021/07/06 05:24:04;;;;;;;13.25;2.58;;;15.20;99.90;;;14.57;88.15;100218.97;4086504;29;20121;-75
2021/07/06 05:26:05;;;;;;;14.20;3.78;;;15.30;99.90;;;14.45;87.66;100198.47;4102094;29;20062;-75
2021/07/06 05:28:06;;;;;;;12.48;2.90;;;15.30;99.90;;;14.53;87.49;100207.09;4097431;29;20039;-76
2021/07/06 05:30:09;;;;;;;8.25;2.60;;;15.20;99.90;;;14.54;86.33;100214.06;4086554;29;20055;-75
2021/07/06 05:32:10;;;;;;;14.30;3.28;;;15.30;99.90;;;14.45;86.57;100203.78;4086581;29;20039;-75
2021/07/06 05:34:12;;;;;;;13.30;2.75;;;15.30;99.90;;;14.34;87.06;100213.91;4103576;29;20068;-75
2021/07/06 05:36:13;;;;;;;18.10;3.13;;;15.20;99.90;;;14.51;85.72;100232.19;4103601;29;20403;-75
2021/07/06 05:38:16;;;;;;;11.50;3.13;;;15.30;99.90;;;14.38;86.66;100225.78;4102206;29;20058;-75
2021/07/06 05:40:17;;;;;;;12.93;2.90;;;15.30;99.90;;;14.60;85.85;100234.50;4086196;29;20032;-75
2021/07/06 05:42:18;;;;;;;18.92;3.15;;;15.30;99.90;;;14.46;87.70;100245.19;4102584;29;20106;-75
2021/07/06 05:44:19;;;;;;;12.10;2.97;;;15.30;99.90;;;14.41;87.80;100248.44;4102248;29;20036;-75
2021/07/06 05:46:20;;;;;;;17.48;3.53;;;15.40;99.90;;;14.47;87.36;100255.66;4103611;29;20372;-75
2021/07/06 05:48:22;;;;;;;9.13;3.00;;;15.30;99.90;;;14.53;89.57;100254.03;4102091;29;20038;-75
2021/07/06 05:50:22;;;;;;;11.95;3.30;;;15.30;99.90;;;14.28;89.86;100258.91;4103589;29;20035;-75
2021/07/06 05:52:27;;;;;;;15.55;3.05;;;15.30;99.90;;;14.50;89.70;100263.22;4103555;29;20039;-75
2021/07/06 05:54:28;;;;;;;11.57;3.90;;;15.30;99.90;;;14.40;89.24;100268.03;4086646;29;20409;-75
2021/07/06 05:56:30;;;;;;;18.13;3.03;;;15.30;99.90;;;14.50;89.69;100268.53;4086326;29;20039;-75
2021/07/06 05:58:31;;;;;;;16.00;3.63;;;15.30;99.90;;;14.23;91.24;100280.72;4102159;29;20031;-75
2021/07/06 06:00:33;;;;;;;13.13;4.15;;;15.20;99.90;;;14.44;90.80;100281.75;4101518;29;20070;-76
2021/07/06 06:02:34;;;;;;;19.13;3.30;;;15.20;99.90;;;14.55;89.40;100290.00;4099402;29;20457;-75
2021/07/06 06:04:35;;;;;;;14.20;4.95;;;15.40;99.90;;;14.80;88.05;100285.91;4100242;29;20035;-76
2021/07/06 06:06:36;;;;;;;13.85;2.83;;;15.50;99.90;;;14.70;88.64;100297.84;4103137;29;20027;-75
2021/07/06 06:08:38;;;;;;;13.32;3.63;;;15.50;99.90;;;14.56;87.77;100301.44;4086136;29;20096;-75
2021/07/06 06:10:39;;;;;;;8.45;2.80;;;15.50;99.90;;;14.76;88.31;100291.78;4086240;29;20034;-75
2021/07/06 06:12:40;;;;;;;11.50;3.08;;;15.60;99.90;;;14.94;86.64;100308.03;4086487;29;20042;-75
2021/07/06 06:14:41;;;;;;;9.98;2.65;;;15.70;99.90;;;14.94;84.83;100300.06;4086187;29;20031;-75
2021/07/06 06:16:43;;;;;;;11.10;3.42;;;15.80;99.90;;;15.02;86.55;100305.25;4103203;29;20038;-75
2021/07/06 06:18:44;;;;;;;15.32;3.03;;;15.90;99.90;;;15.02;84.73;100315.06;4086081;29;20107;-75
2021/07/06 06:20:45;;;;;;;15.05;3.15;;;16.00;99.90;;;15.12;83.81;100313.66;4086352;29;20059;-77
2021/07/06 06:22:46;;;;;;;15.00;3.50;;;16.10;99.90;;;15.20;85.11;100313.50;4088271;29;20575;-77
2021/07/06 06:24:47;;;;;;;9.00;3.05;;;16.10;99.90;;;15.18;82.40;100312.06;4084427;29;20587;-76
2021/07/06 06:26:49;;;;;;;9.57;2.33;;;16.20;99.90;;;15.10;84.67;100313.06;4102914;29;20023;-75
2021/07/06 06:28:50;;;;;;;21.60;3.00;;;16.20;99.90;;;15.22;84.48;100331.91;4082315;29;20054;-75
2021/07/06 06:30:54;;;;;;;17.75;3.45;;;16.20;99.90;;;14.96;83.48;100335.25;4085337;29;20028;-76
2021/07/06 06:32:55;;;;;;;16.25;3.28;;;16.20;99.90;;;15.02;84.30;100334.47;4096497;29;20023;-78
2021/07/06 06:34:56;;;;;;;7.72;2.00;;;16.10;99.90;;;15.02;84.58;100338.97;4085677;29;20034;-75
2021/07/06 06:36:57;;;;;;;11.32;2.60;;;16.10;99.90;;;15.07;83.82;100326.72;4085580;29;20028;-76
2021/07/06 06:39:00;;;;;;;8.93;2.70;;;16.10;99.90;;;14.99;82.38;100347.31;4101856;29;20035;-76
2021/07/06 06:41:01;;;;;;;10.48;2.45;;;16.00;99.90;;;15.18;83.86;100342.13;4101957;29;20019;-77
2021/07/06 06:43:02;;;;;;;11.70;2.58;;;16.10;99.90;;;15.20;84.08;100349.91;4078082;29;20035;-77
2021/07/06 06:45:06;;;;;;;8.15;2.22;;;16.10;99.90;;;15.25;81.70;100345.63;4085650;29;20427;-77
2021/07/06 06:47:07;;;;;;;12.73;2.63;;;16.10;99.90;;;15.39;81.87;100357.16;4088066;29;20035;-76
2021/07/06 06:49:08;;;;;;;9.00;2.40;;;16.20;99.90;;;15.55;82.19;100356.03;4104865;29;20027;-77
2021/07/06 06:51:11;;;;;;;9.25;3.65;;;16.30;99.90;;;15.46;80.55;100358.03;4105272;29;20472;-76
2021/07/06 06:53:12;;;;;;;8.82;2.50;;;16.30;99.90;;;15.45;78.77;100354.53;4105472;29;20023;-77
2021/07/06 06:55:13;;;;;;;12.88;2.22;;;16.40;99.90;;;15.41;78.26;100350.63;4072523;29;20055;-76
2021/07/06 06:57:14;;;;;;;8.57;2.13;;;16.40;99.90;;;15.46;80.48;100358.84;4105138;29;20039;-78
2021/07/06 06:59:15;;;;;;;12.20;2.50;;;16.40;99.90;;;15.45;79.35;100354.53;4087569;29;20519;-76
2021/07/06 07:01:16;;;;;;;6.70;2.22;;;16.30;99.90;;;15.60;78.09;100370.38;4106598;28;20101;-75
2021/07/06 07:03:17;;;;;;;13.80;2.30;;;16.40;99.90;;;15.55;76.51;100343.56;4103894;29;20091;-75
2021/07/06 07:05:18;;;;;;;10.75;3.33;;;16.40;99.90;;;15.46;79.44;100364.16;4104189;29;20027;-74
2021/07/06 07:07:22;;;;;;;9.30;3.17;;;16.30;99.90;;;15.47;79.00;100360.50;4105058;29;20043;-75
2021/07/06 07:09:22;;;;;;;9.15;2.17;;;16.30;99.90;;;15.43;80.24;100353.91;4103237;29;20027;-77
2021/07/06 07:11:23;;;;;;;12.38;3.88;;;16.30;99.90;;;15.63;80.10;100363.84;4103908;29;20036;-76
2021/07/06 07:13:26;;;;;;;12.18;3.20;;;16.40;99.90;;;15.69;78.99;100371.84;4104012;29;20027;-77
2021/07/06 07:15:27;;;;;;;9.60;2.88;;;16.40;99.90;;;15.69;79.12;100371.03;4089578;29;20039;-77
2021/07/06 07:17:28;;;;;;;10.00;2.00;;;16.40;99.90;;;15.91;78.15;100370.72;4103608;29;20071;-77
2021/07/06 07:19:29;;;;;;;11.82;2.22;;;16.60;99.90;;;15.78;77.89;100352.06;4087287;29;20058;-75
2021/07/06 07:21:31;;;;;;;12.60;2.67;;;16.70;99.90;;;15.74;79.04;100363.31;4104871;29;20067;-76
2021/07/06 07:23:32;;;;;;;14.77;3.67;;;16.70;99.90;;;15.99;81.58;100377.69;4104998;29;20027;-76
2021/07/06 07:25:33;;;;;;;10.73;2.78;;;16.80;99.90;;;16.08;79.39;100378.34;4104657;29;20030;-77
2021/07/06 07:27:34;;;;;;;11.10;2.63;;;16.90;99.90;;;16.20;77.58;100382.88;4104482;29;20031;-76
2021/07/06 07:29:35;;;;;;;8.77;2.88;;;17.00;99.90;;;16.17;77.02;100398.44;4104390;29;20039;-77
2021/07/06 07:31:37;;;;;;;8.23;2.35;;;17.00;99.90;;;16.20;77.31;100392.69;4103906;29;20023;-75
2021/07/06 07:33:38;;;;;;;7.55;2.05;;;17.00;99.90;;;16.20;77.90;100404.16;4104933;29;20505;-75
2021/07/06 07:35:39;;;;;;;9.18;2.38;;;17.00;99.90;;;15.97;78.10;100409.84;4104783;29;20035;-76
2021/07/06 07:37:41;;;;;;;11.23;2.45;;;16.90;99.90;;;16.10;77.18;100408.25;4101215;29;20050;-77
2021/07/06 07:39:44;;;;;;;12.80;2.72;;;16.90;99.90;;;16.18;78.04;100406.22;4087074;29;20058;-76
2021/07/06 07:41:45;;;;;;;10.20;2.40;;;16.90;99.90;;;16.09;75.85;100406.59;4112742;28;20075;-75
2021/07/06 07:43:46;;;;;;;12.77;2.33;;;17.00;99.90;;;16.04;76.34;100404.50;4106805;28;20106;-76
2021/07/06 07:45:47;;;;;;;9.90;2.72;;;16.90;99.90;;;15.94;76.11;100414.72;4087416;29;20040;-76
2021/07/06 07:47:48;;;;;;;9.50;2.78;;;16.90;99.90;;;16.14;77.59;100404.16;4087251;29;20038;-76
2021/07/06 07:49:48;;;;;;;7.07;2.00;;;17.00;99.90;;;16.24;76.21;100416.06;4102863;29;20090;-76
2021/07/06 07:51:50;;;;;;;9.25;2.53;;;17.00;99.90;;;16.38;78.59;100416.91;4071441;29;20040;-75
2021/07/06 07:53:51;;;;;;;9.70;2.47;;;17.20;99.90;;;16.46;76.89;100435.34;4102739;29;20106;-75
2021/07/06 07:55:53;;;;;;;7.70;2.47;;;17.30;99.90;;;16.56;77.35;100426.00;4087118;29;20028;-76
2021/07/06 07:57:56;;;;;;;10.52;2.92;;;17.50;99.90;;;16.50;75.22;100424.09;4085793;29;20050;-75
2021/07/06 07:59:56;;;;;;;12.20;1.85;;;17.50;99.90;;;16.42;74.09;100426.97;4086952;29;20023;-75
2021/07/06 08:01:57;;;;;;;11.07;1.98;;;17.60;99.90;;;16.50;73.30;100426.78;4103080;29;20509;-76
2021/07/06 08:03:58;;;;;;;11.02;3.58;;;17.50;99.90;;;16.77;74.17;100437.50;4102304;29;20398;-75
2021/07/06 08:06:00;;;;;;;10.65;2.55;;;17.70;99.90;;;16.81;72.59;100439.56;4087187;29;20027;-75
2021/07/06 08:08:01;;;;;;;10.27;2.63;;;17.80;99.90;;;16.55;73.52;100450.16;4102583;29;20090;-75
2021/07/06 08:10:02;;;;;;;10.95;1.98;;;17.80;99.90;;;16.54;73.54;100449.34;4086773;29;20419;-77
2021/07/06 08:12:05;;;;;;;7.07;2.13;;;17.80;99.90;;;16.66;72.94;100456.75;4104187;29;20031;-77
2021/07/06 08:14:06;;;;;;;9.77;2.63;;;17.90;99.90;;;17.06;71.76;100447.75;4087247;29;20554;-77
2021/07/06 08:16:07;;;;;;;10.98;3.60;;;18.10;99.90;;;17.19;70.77;100454.94;4102828;29;20031;-74
2021/07/06 08:18:08;;;;;;;8.68;2.05;;;18.30;99.90;;;17.10;69.15;100447.16;4102513;29;20037;-74
2021/07/06 08:20:09;;;;;;;13.80;3.10;;;18.40;99.90;;;17.00;72.16;100467.22;4103765;29;20055;-74
2021/07/06 08:22:11;;;;;;;7.78;2.20;;;18.40;99.90;;;17.30;72.55;100464.97;4102786;29;20033;-74